Terminal Aerodrome Forecast
Issued by NWS

Home | Current Version | Previous Version | Text Only | Print | Product List | Glossary On
Versions: 1 2 3 4 5 6 7 8 9 10 11 12 13 14
634
FTUS43 KIND 260613 AAA
TAFLAF
TAF AMD
KLAF 260613Z 2606/2706 22006KT P6SM BKN015 BKN100
     FM260900 22003KT 4SM BR BKN015
     FM261400 21008KT P6SM SCT025 BKN080
     FM261900 21008KT P6SM BKN040
      AMD LTD TO CLD VIS AND WIND TIL 261300=

USA.gov is the U.S. government's official web portal to all federal, state and local government web resources and services.